sensor_id;sensor_type;location;lat;lon;timestamp;P1;durP1;ratioP1;P2;durP2;ratioP2
31966;SDS011;18496;52.042;6.812;2023-06-26T00:00:38;11.60;;;8.13;;
31966;SDS011;18496;52.042;6.812;2023-06-26T00:02:42;8.55;;;7.25;;
31966;SDS011;18496;52.042;6.812;2023-06-26T00:04:48;9.43;;;7.47;;
31966;SDS011;18496;52.042;6.812;2023-06-26T00:06:56;9.00;;;7.30;;
31966;SDS011;18496;52.042;6.812;2023-06-26T00:09:05;11.00;;;8.70;;
31966;SDS011;18496;52.042;6.812;2023-06-26T00:11:09;12.52;;;7.47;;
31966;SDS011;18496;52.042;6.812;2023-06-26T00:13:17;8.75;;;7.25;;
31966;SDS011;18496;52.042;6.812;2023-06-26T00:15:24;11.38;;;7.75;;
31966;SDS011;18496;52.042;6.812;2023-06-26T00:17:28;9.32;;;7.65;;
31966;SDS011;18496;52.042;6.812;2023-06-26T00:19:32;12.02;;;8.13;;
31966;SDS011;18496;52.042;6.812;2023-06-26T00:21:40;8.88;;;7.65;;
31966;SDS011;18496;52.042;6.812;2023-06-26T00:23:57;9.93;;;7.78;;
31966;SDS011;18496;52.042;6.812;2023-06-26T00:26:01;9.10;;;7.43;;
31966;SDS011;18496;52.042;6.812;2023-06-26T00:28:04;9.50;;;7.57;;
31966;SDS011;18496;52.042;6.812;2023-06-26T00:30:08;10.65;;;7.72;;
31966;SDS011;18496;52.042;6.812;2023-06-26T00:32:12;11.55;;;8.60;;
31966;SDS011;18496;52.042;6.812;2023-06-26T00:34:16;15.68;;;9.32;;
31966;SDS011;18496;52.042;6.812;2023-06-26T00:36:23;9.98;;;8.50;;
31966;SDS011;18496;52.042;6.812;2023-06-26T00:38:27;12.02;;;7.78;;
31966;SDS011;18496;52.042;6.812;2023-06-26T00:40:30;13.10;;;8.57;;
31966;SDS011;18496;52.042;6.812;2023-06-26T00:42:34;11.40;;;8.98;;
31966;SDS011;18496;52.042;6.812;2023-06-26T00:44:38;11.27;;;8.30;;
31966;SDS011;18496;52.042;6.812;2023-06-26T00:46:41;9.10;;;7.80;;
31966;SDS011;18496;52.042;6.812;2023-06-26T00:48:48;13.43;;;9.25;;
31966;SDS011;18496;52.042;6.812;2023-06-26T00:50:54;15.02;;;9.05;;
31966;SDS011;18496;52.042;6.812;2023-06-26T00:52:58;10.48;;;8.02;;
31966;SDS011;18496;52.042;6.812;2023-06-26T00:55:04;10.93;;;8.55;;
31966;SDS011;18496;52.042;6.812;2023-06-26T00:57:10;11.88;;;8.90;;
31966;SDS011;18496;52.042;6.812;2023-06-26T00:59:14;12.25;;;8.85;;
31966;SDS011;18496;52.042;6.812;2023-06-26T01:01:18;11.07;;;8.57;;
31966;SDS011;18496;52.042;6.812;2023-06-26T01:03:28;12.23;;;8.45;;
31966;SDS011;18496;52.042;6.812;2023-06-26T01:05:51;12.23;;;8.40;;
31966;SDS011;18496;52.042;6.812;2023-06-26T01:07:59;11.93;;;8.63;;
31966;SDS011;18496;52.042;6.812;2023-06-26T01:10:09;13.52;;;9.02;;
31966;SDS011;18496;52.042;6.812;2023-06-26T01:12:14;14.18;;;9.05;;
31966;SDS011;18496;52.042;6.812;2023-06-26T01:14:18;13.00;;;9.05;;
31966;SDS011;18496;52.042;6.812;2023-06-26T01:16:23;12.43;;;9.30;;
31966;SDS011;18496;52.042;6.812;2023-06-26T01:18:32;18.73;;;9.30;;
31966;SDS011;18496;52.042;6.812;2023-06-26T01:20:54;15.32;;;9.27;;
31966;SDS011;18496;52.042;6.812;2023-06-26T01:23:22;15.52;;;10.07;;
31966;SDS011;18496;52.042;6.812;2023-06-26T01:28:13;11.98;;;9.45;;
31966;SDS011;18496;52.042;6.812;2023-06-26T01:30:20;12.13;;;9.48;;
31966;SDS011;18496;52.042;6.812;2023-06-26T01:32:31;12.77;;;9.65;;
31966;SDS011;18496;52.042;6.812;2023-06-26T01:34:36;13.90;;;10.00;;
31966;SDS011;18496;52.042;6.812;2023-06-26T01:36:40;11.25;;;8.80;;
31966;SDS011;18496;52.042;6.812;2023-06-26T01:38:46;12.40;;;9.68;;
31966;SDS011;18496;52.042;6.812;2023-06-26T01:40:50;12.77;;;9.48;;
31966;SDS011;18496;52.042;6.812;2023-06-26T01:42:57;13.45;;;9.65;;
31966;SDS011;18496;52.042;6.812;2023-06-26T01:45:14;11.93;;;9.07;;
31966;SDS011;18496;52.042;6.812;2023-06-26T01:47:26;10.88;;;9.32;;
31966;SDS011;18496;52.042;6.812;2023-06-26T01:51:55;14.18;;;9.70;;
31966;SDS011;18496;52.042;6.812;2023-06-26T01:54:14;13.43;;;10.20;;
31966;SDS011;18496;52.042;6.812;2023-06-26T01:56:24;14.45;;;10.55;;
31966;SDS011;18496;52.042;6.812;2023-06-26T01:58:40;13.48;;;9.30;;
31966;SDS011;18496;52.042;6.812;2023-06-26T02:00:48;14.13;;;9.93;;
31966;SDS011;18496;52.042;6.812;2023-06-26T02:02:55;13.77;;;9.40;;
31966;SDS011;18496;52.042;6.812;2023-06-26T02:04:59;13.20;;;10.20;;
31966;SDS011;18496;52.042;6.812;2023-06-26T02:07:03;14.98;;;9.48;;
31966;SDS011;18496;52.042;6.812;2023-06-26T02:09:09;11.85;;;9.90;;
31966;SDS011;18496;52.042;6.812;2023-06-26T02:11:16;12.40;;;9.65;;
31966;SDS011;18496;52.042;6.812;2023-06-26T02:13:19;14.82;;;9.13;;
31966;SDS011;18496;52.042;6.812;2023-06-26T02:15:37;12.02;;;9.13;;
31966;SDS011;18496;52.042;6.812;2023-06-26T02:17:56;16.95;;;10.00;;
31966;SDS011;18496;52.042;6.812;2023-06-26T02:20:11;19.27;;;10.73;;
31966;SDS011;18496;52.042;6.812;2023-06-26T02:22:33;15.27;;;9.57;;
31966;SDS011;18496;52.042;6.812;2023-06-26T02:24:45;18.58;;;10.48;;
31966;SDS011;18496;52.042;6.812;2023-06-26T02:26:49;12.77;;;10.43;;
31966;SDS011;18496;52.042;6.812;2023-06-26T02:28:59;16.55;;;10.60;;
31966;SDS011;18496;52.042;6.812;2023-06-26T02:31:11;14.13;;;9.13;;
31966;SDS011;18496;52.042;6.812;2023-06-26T02:34:09;14.55;;;10.23;;
31966;SDS011;18496;52.042;6.812;2023-06-26T02:36:30;15.48;;;9.57;;
31966;SDS011;18496;52.042;6.812;2023-06-26T02:38:56;14.32;;;9.05;;
31966;SDS011;18496;52.042;6.812;2023-06-26T02:41:38;14.73;;;10.20;;
31966;SDS011;18496;52.042;6.812;2023-06-26T02:44:02;15.93;;;11.07;;
31966;SDS011;18496;52.042;6.812;2023-06-26T02:46:35;15.55;;;9.70;;
31966;SDS011;18496;52.042;6.812;2023-06-26T02:49:20;15.82;;;11.32;;
31966;SDS011;18496;52.042;6.812;2023-06-26T02:51:48;16.58;;;10.98;;
31966;SDS011;18496;52.042;6.812;2023-06-26T02:54:30;15.00;;;11.00;;
31966;SDS011;18496;52.042;6.812;2023-06-26T02:57:04;15.70;;;10.93;;
31966;SDS011;18496;52.042;6.812;2023-06-26T03:02:06;13.82;;;10.35;;
31966;SDS011;18496;52.042;6.812;2023-06-26T03:05:28;17.38;;;10.52;;
31966;SDS011;18496;52.042;6.812;2023-06-26T03:07:53;14.68;;;10.05;;
31966;SDS011;18496;52.042;6.812;2023-06-26T03:13:01;21.95;;;11.23;;
31966;SDS011;18496;52.042;6.812;2023-06-26T03:15:20;16.65;;;10.50;;
31966;SDS011;18496;52.042;6.812;2023-06-26T03:18:11;13.65;;;10.32;;
31966;SDS011;18496;52.042;6.812;2023-06-26T03:20:41;13.23;;;10.07;;
31966;SDS011;18496;52.042;6.812;2023-06-26T03:23:05;14.95;;;10.07;;
31966;SDS011;18496;52.042;6.812;2023-06-26T03:25:30;18.45;;;11.23;;
31966;SDS011;18496;52.042;6.812;2023-06-26T03:28:12;16.73;;;11.05;;
31966;SDS011;18496;52.042;6.812;2023-06-26T03:30:39;15.38;;;10.38;;
31966;SDS011;18496;52.042;6.812;2023-06-26T03:32:43;14.77;;;10.40;;
31966;SDS011;18496;52.042;6.812;2023-06-26T03:34:48;14.20;;;10.68;;
31966;SDS011;18496;52.042;6.812;2023-06-26T03:36:52;18.17;;;11.23;;
31966;SDS011;18496;52.042;6.812;2023-06-26T03:38:56;18.25;;;10.85;;
31966;SDS011;18496;52.042;6.812;2023-06-26T03:41:03;16.75;;;11.30;;
31966;SDS011;18496;52.042;6.812;2023-06-26T03:43:07;15.45;;;11.25;;
31966;SDS011;18496;52.042;6.812;2023-06-26T03:45:22;17.23;;;11.32;;
31966;SDS011;18496;52.042;6.812;2023-06-26T03:47:26;20.55;;;11.63;;
31966;SDS011;18496;52.042;6.812;2023-06-26T03:49:43;19.25;;;11.73;;
31966;SDS011;18496;52.042;6.812;2023-06-26T03:51:47;15.75;;;11.63;;
31966;SDS011;18496;52.042;6.812;2023-06-26T03:53:51;16.48;;;11.55;;
31966;SDS011;18496;52.042;6.812;2023-06-26T03:55:55;15.93;;;11.27;;
31966;SDS011;18496;52.042;6.812;2023-06-26T03:58:00;16.73;;;11.73;;
31966;SDS011;18496;52.042;6.812;2023-06-26T04:00:04;18.85;;;13.15;;
31966;SDS011;18496;52.042;6.812;2023-06-26T04:02:18;18.63;;;11.90;;
31966;SDS011;18496;52.042;6.812;2023-06-26T04:04:24;18.52;;;12.30;;
31966;SDS011;18496;52.042;6.812;2023-06-26T04:06:31;17.52;;;12.15;;
31966;SDS011;18496;52.042;6.812;2023-06-26T04:08:36;20.52;;;11.90;;
31966;SDS011;18496;52.042;6.812;2023-06-26T04:10:45;17.58;;;11.73;;
31966;SDS011;18496;52.042;6.812;2023-06-26T04:12:56;19.40;;;12.35;;
31966;SDS011;18496;52.042;6.812;2023-06-26T04:15:09;14.57;;;11.65;;
31966;SDS011;18496;52.042;6.812;2023-06-26T04:17:13;17.27;;;12.02;;
31966;SDS011;18496;52.042;6.812;2023-06-26T04:19:22;18.17;;;13.18;;
31966;SDS011;18496;52.042;6.812;2023-06-26T04:21:28;16.90;;;11.65;;
31966;SDS011;18496;52.042;6.812;2023-06-26T04:23:32;23.88;;;13.10;;
31966;SDS011;18496;52.042;6.812;2023-06-26T04:25:42;14.93;;;12.55;;
31966;SDS011;18496;52.042;6.812;2023-06-26T04:27:45;17.40;;;12.27;;
31966;SDS011;18496;52.042;6.812;2023-06-26T04:29:51;14.48;;;11.32;;
31966;SDS011;18496;52.042;6.812;2023-06-26T04:31:58;15.35;;;11.73;;
31966;SDS011;18496;52.042;6.812;2023-06-26T04:34:01;16.73;;;11.98;;
31966;SDS011;18496;52.042;6.812;2023-06-26T04:36:05;18.05;;;11.30;;
31966;SDS011;18496;52.042;6.812;2023-06-26T04:38:12;19.15;;;10.98;;
31966;SDS011;18496;52.042;6.812;2023-06-26T04:40:19;12.82;;;9.80;;
31966;SDS011;18496;52.042;6.812;2023-06-26T04:42:23;12.52;;;9.10;;
31966;SDS011;18496;52.042;6.812;2023-06-26T04:44:26;13.57;;;9.15;;
31966;SDS011;18496;52.042;6.812;2023-06-26T04:46:30;16.08;;;8.70;;
31966;SDS011;18496;52.042;6.812;2023-06-26T04:48:36;13.45;;;8.13;;
31966;SDS011;18496;52.042;6.812;2023-06-26T04:50:40;12.65;;;8.13;;
31966;SDS011;18496;52.042;6.812;2023-06-26T04:52:44;14.82;;;7.82;;
31966;SDS011;18496;52.042;6.812;2023-06-26T04:54:47;14.68;;;7.65;;
31966;SDS011;18496;52.042;6.812;2023-06-26T04:56:51;13.27;;;7.25;;
31966;SDS011;18496;52.042;6.812;2023-06-26T04:58:55;16.48;;;6.93;;
31966;SDS011;18496;52.042;6.812;2023-06-26T05:00:59;10.35;;;6.15;;
31966;SDS011;18496;52.042;6.812;2023-06-26T05:03:02;15.75;;;6.53;;
31966;SDS011;18496;52.042;6.812;2023-06-26T05:05:06;12.52;;;6.82;;
31966;SDS011;18496;52.042;6.812;2023-06-26T05:07:10;13.73;;;6.82;;
31966;SDS011;18496;52.042;6.812;2023-06-26T05:09:14;22.05;;;6.20;;
31966;SDS011;18496;52.042;6.812;2023-06-26T05:11:17;12.02;;;6.53;;
31966;SDS011;18496;52.042;6.812;2023-06-26T05:13:21;15.57;;;6.55;;
31966;SDS011;18496;52.042;6.812;2023-06-26T05:15:25;11.50;;;5.55;;
31966;SDS011;18496;52.042;6.812;2023-06-26T05:17:28;9.63;;;5.80;;
31966;SDS011;18496;52.042;6.812;2023-06-26T05:19:32;16.58;;;5.57;;
31966;SDS011;18496;52.042;6.812;2023-06-26T05:21:36;12.32;;;6.30;;
31966;SDS011;18496;52.042;6.812;2023-06-26T05:23:39;11.82;;;5.97;;
31966;SDS011;18496;52.042;6.812;2023-06-26T05:25:44;12.20;;;5.38;;
31966;SDS011;18496;52.042;6.812;2023-06-26T05:27:48;14.35;;;5.65;;
31966;SDS011;18496;52.042;6.812;2023-06-26T05:29:52;15.38;;;5.43;;
31966;SDS011;18496;52.042;6.812;2023-06-26T05:31:56;8.90;;;5.40;;
31966;SDS011;18496;52.042;6.812;2023-06-26T05:34:00;16.40;;;5.75;;
31966;SDS011;18496;52.042;6.812;2023-06-26T05:36:05;13.50;;;5.25;;
31966;SDS011;18496;52.042;6.812;2023-06-26T05:38:10;13.40;;;5.82;;
31966;SDS011;18496;52.042;6.812;2023-06-26T05:40:16;14.15;;;5.90;;
31966;SDS011;18496;52.042;6.812;2023-06-26T05:42:20;17.33;;;5.93;;
31966;SDS011;18496;52.042;6.812;2023-06-26T05:44:24;19.58;;;5.82;;
31966;SDS011;18496;52.042;6.812;2023-06-26T05:46:28;19.50;;;7.07;;
31966;SDS011;18496;52.042;6.812;2023-06-26T05:48:32;15.80;;;6.15;;
31966;SDS011;18496;52.042;6.812;2023-06-26T05:50:35;17.52;;;5.72;;
31966;SDS011;18496;52.042;6.812;2023-06-26T05:52:39;11.52;;;6.03;;
31966;SDS011;18496;52.042;6.812;2023-06-26T05:54:44;19.33;;;6.07;;
31966;SDS011;18496;52.042;6.812;2023-06-26T05:56:47;11.95;;;5.75;;
31966;SDS011;18496;52.042;6.812;2023-06-26T05:58:51;17.42;;;6.25;;
31966;SDS011;18496;52.042;6.812;2023-06-26T06:00:56;18.40;;;5.97;;
31966;SDS011;18496;52.042;6.812;2023-06-26T06:02:59;14.77;;;5.55;;
31966;SDS011;18496;52.042;6.812;2023-06-26T06:05:03;13.20;;;6.03;;
31966;SDS011;18496;52.042;6.812;2023-06-26T06:07:08;16.73;;;5.47;;
31966;SDS011;18496;52.042;6.812;2023-06-26T06:09:11;20.02;;;6.05;;
31966;SDS011;18496;52.042;6.812;2023-06-26T06:11:15;15.77;;;6.03;;
31966;SDS011;18496;52.042;6.812;2023-06-26T06:13:18;12.27;;;5.68;;
31966;SDS011;18496;52.042;6.812;2023-06-26T06:15:22;14.48;;;6.32;;
31966;SDS011;18496;52.042;6.812;2023-06-26T06:17:26;18.52;;;6.85;;
31966;SDS011;18496;52.042;6.812;2023-06-26T06:19:29;19.70;;;7.07;;
31966;SDS011;18496;52.042;6.812;2023-06-26T06:21:33;17.85;;;6.78;;
31966;SDS011;18496;52.042;6.812;2023-06-26T06:23:37;16.05;;;6.05;;
31966;SDS011;18496;52.042;6.812;2023-06-26T06:25:41;18.38;;;6.75;;
31966;SDS011;18496;52.042;6.812;2023-06-26T06:27:45;15.90;;;7.32;;
31966;SDS011;18496;52.042;6.812;2023-06-26T06:29:48;17.27;;;6.85;;
31966;SDS011;18496;52.042;6.812;2023-06-26T06:31:52;16.00;;;6.63;;
31966;SDS011;18496;52.042;6.812;2023-06-26T06:33:56;15.55;;;6.20;;
31966;SDS011;18496;52.042;6.812;2023-06-26T06:35:59;17.95;;;6.45;;
31966;SDS011;18496;52.042;6.812;2023-06-26T06:38:03;22.33;;;7.18;;
31966;SDS011;18496;52.042;6.812;2023-06-26T06:40:08;24.85;;;6.68;;
31966;SDS011;18496;52.042;6.812;2023-06-26T06:42:13;23.05;;;6.88;;
31966;SDS011;18496;52.042;6.812;2023-06-26T06:44:17;19.92;;;6.85;;
31966;SDS011;18496;52.042;6.812;2023-06-26T06:46:20;21.88;;;5.53;;
31966;SDS011;18496;52.042;6.812;2023-06-26T06:48:24;16.92;;;6.05;;
31966;SDS011;18496;52.042;6.812;2023-06-26T06:50:28;20.23;;;7.07;;
31966;SDS011;18496;52.042;6.812;2023-06-26T06:52:31;16.42;;;5.85;;
31966;SDS011;18496;52.042;6.812;2023-06-26T06:54:50;20.77;;;6.38;;
31966;SDS011;18496;52.042;6.812;2023-06-26T06:56:58;16.02;;;6.10;;
31966;SDS011;18496;52.042;6.812;2023-06-26T06:59:02;17.80;;;6.45;;
31966;SDS011;18496;52.042;6.812;2023-06-26T07:01:06;14.07;;;6.55;;
31966;SDS011;18496;52.042;6.812;2023-06-26T07:03:09;17.23;;;6.03;;
31966;SDS011;18496;52.042;6.812;2023-06-26T07:05:13;14.52;;;5.55;;
31966;SDS011;18496;52.042;6.812;2023-06-26T07:07:18;17.50;;;5.75;;
31966;SDS011;18496;52.042;6.812;2023-06-26T07:09:22;15.70;;;6.28;;
31966;SDS011;18496;52.042;6.812;2023-06-26T07:11:26;19.88;;;6.07;;
31966;SDS011;18496;52.042;6.812;2023-06-26T07:13:29;11.02;;;5.70;;
31966;SDS011;18496;52.042;6.812;2023-06-26T07:15:33;13.23;;;6.00;;
31966;SDS011;18496;52.042;6.812;2023-06-26T07:17:37;17.08;;;6.32;;
31966;SDS011;18496;52.042;6.812;2023-06-26T07:19:41;18.75;;;6.28;;
31966;SDS011;18496;52.042;6.812;2023-06-26T07:21:45;14.18;;;5.15;;
31966;SDS011;18496;52.042;6.812;2023-06-26T07:23:50;19.23;;;5.57;;
31966;SDS011;18496;52.042;6.812;2023-06-26T07:25:53;18.67;;;6.07;;
31966;SDS011;18496;52.042;6.812;2023-06-26T07:27:57;15.43;;;6.72;;
31966;SDS011;18496;52.042;6.812;2023-06-26T07:30:01;14.90;;;5.65;;
31966;SDS011;18496;52.042;6.812;2023-06-26T07:32:05;15.02;;;6.60;;
31966;SDS011;18496;52.042;6.812;2023-06-26T07:34:08;14.63;;;5.38;;
31966;SDS011;18496;52.042;6.812;2023-06-26T07:36:12;15.57;;;5.32;;
31966;SDS011;18496;52.042;6.812;2023-06-26T07:38:16;15.20;;;4.78;;
31966;SDS011;18496;52.042;6.812;2023-06-26T07:40:19;13.05;;;5.07;;
31966;SDS011;18496;52.042;6.812;2023-06-26T07:42:23;18.85;;;5.72;;
31966;SDS011;18496;52.042;6.812;2023-06-26T07:44:26;13.70;;;4.93;;
31966;SDS011;18496;52.042;6.812;2023-06-26T07:46:30;10.50;;;4.55;;
31966;SDS011;18496;52.042;6.812;2023-06-26T07:48:34;12.70;;;4.43;;
31966;SDS011;18496;52.042;6.812;2023-06-26T07:50:37;10.48;;;4.60;;
31966;SDS011;18496;52.042;6.812;2023-06-26T07:52:41;14.85;;;4.63;;
31966;SDS011;18496;52.042;6.812;2023-06-26T07:54:45;14.45;;;5.10;;
31966;SDS011;18496;52.042;6.812;2023-06-26T07:56:58;11.02;;;4.03;;
31966;SDS011;18496;52.042;6.812;2023-06-26T07:59:03;11.60;;;5.35;;
31966;SDS011;18496;52.042;6.812;2023-06-26T08:01:07;13.30;;;5.03;;
31966;SDS011;18496;52.042;6.812;2023-06-26T08:03:11;10.35;;;3.95;;
31966;SDS011;18496;52.042;6.812;2023-06-26T08:05:14;10.38;;;4.28;;
31966;SDS011;18496;52.042;6.812;2023-06-26T08:07:18;11.75;;;4.78;;
31966;SDS011;18496;52.042;6.812;2023-06-26T08:09:22;6.13;;;3.65;;
31966;SDS011;18496;52.042;6.812;2023-06-26T08:11:28;10.10;;;4.07;;
31966;SDS011;18496;52.042;6.812;2023-06-26T08:13:32;9.30;;;4.15;;
31966;SDS011;18496;52.042;6.812;2023-06-26T08:15:35;7.63;;;3.58;;
31966;SDS011;18496;52.042;6.812;2023-06-26T08:17:39;11.90;;;3.95;;
31966;SDS011;18496;52.042;6.812;2023-06-26T08:19:42;9.82;;;3.80;;
31966;SDS011;18496;52.042;6.812;2023-06-26T08:21:46;11.45;;;4.15;;
31966;SDS011;18496;52.042;6.812;2023-06-26T08:23:50;10.88;;;4.35;;
31966;SDS011;18496;52.042;6.812;2023-06-26T08:25:54;6.00;;;3.47;;
31966;SDS011;18496;52.042;6.812;2023-06-26T08:27:57;7.18;;;3.15;;
31966;SDS011;18496;52.042;6.812;2023-06-26T08:30:01;8.63;;;3.78;;
31966;SDS011;18496;52.042;6.812;2023-06-26T08:32:06;7.95;;;3.50;;
31966;SDS011;18496;52.042;6.812;2023-06-26T08:34:09;7.22;;;3.10;;
31966;SDS011;18496;52.042;6.812;2023-06-26T08:36:13;7.95;;;3.05;;
31966;SDS011;18496;52.042;6.812;2023-06-26T08:38:17;5.60;;;2.50;;
31966;SDS011;18496;52.042;6.812;2023-06-26T08:40:24;5.75;;;2.70;;
31966;SDS011;18496;52.042;6.812;2023-06-26T08:42:28;5.55;;;1.80;;
31966;SDS011;18496;52.042;6.812;2023-06-26T08:44:32;6.32;;;2.97;;
31966;SDS011;18496;52.042;6.812;2023-06-26T08:46:35;8.38;;;2.50;;
31966;SDS011;18496;52.042;6.812;2023-06-26T08:48:39;7.13;;;2.50;;
31966;SDS011;18496;52.042;6.812;2023-06-26T08:50:48;4.15;;;2.30;;
31966;SDS011;18496;52.042;6.812;2023-06-26T08:55:14;5.22;;;2.60;;
31966;SDS011;18496;52.042;6.812;2023-06-26T08:57:19;7.20;;;2.45;;
31966;SDS011;18496;52.042;6.812;2023-06-26T08:59:25;3.08;;;2.45;;
31966;SDS011;18496;52.042;6.812;2023-06-26T09:01:30;3.95;;;2.60;;
31966;SDS011;18496;52.042;6.812;2023-06-26T09:03:35;4.30;;;2.83;;
31966;SDS011;18496;52.042;6.812;2023-06-26T09:05:38;4.10;;;2.50;;
31966;SDS011;18496;52.042;6.812;2023-06-26T09:07:42;8.65;;;2.72;;
31966;SDS011;18496;52.042;6.812;2023-06-26T09:09:46;5.30;;;2.92;;
31966;SDS011;18496;52.042;6.812;2023-06-26T09:11:49;4.60;;;2.92;;
31966;SDS011;18496;52.042;6.812;2023-06-26T09:13:53;5.53;;;2.63;;
31966;SDS011;18496;52.042;6.812;2023-06-26T09:15:58;4.57;;;2.80;;
31966;SDS011;18496;52.042;6.812;2023-06-26T09:18:01;6.38;;;2.70;;
31966;SDS011;18496;52.042;6.812;2023-06-26T09:20:08;4.95;;;3.15;;
31966;SDS011;18496;52.042;6.812;2023-06-26T09:22:13;6.32;;;3.03;;
31966;SDS011;18496;52.042;6.812;2023-06-26T09:24:17;6.97;;;3.45;;
31966;SDS011;18496;52.042;6.812;2023-06-26T09:26:21;5.95;;;3.53;;
31966;SDS011;18496;52.042;6.812;2023-06-26T09:28:25;9.52;;;3.25;;
31966;SDS011;18496;52.042;6.812;2023-06-26T09:30:31;6.55;;;3.28;;
31966;SDS011;18496;52.042;6.812;2023-06-26T09:32:35;4.82;;;3.10;;
31966;SDS011;18496;52.042;6.812;2023-06-26T09:34:40;6.57;;;3.28;;
31966;SDS011;18496;52.042;6.812;2023-06-26T09:36:45;19.02;;;4.32;;
31966;SDS011;18496;52.042;6.812;2023-06-26T09:38:50;16.27;;;3.58;;
31966;SDS011;18496;52.042;6.812;2023-06-26T09:40:54;7.38;;;2.92;;
31966;SDS011;18496;52.042;6.812;2023-06-26T09:43:04;18.08;;;3.22;;
31966;SDS011;18496;52.042;6.812;2023-06-26T09:45:12;7.65;;;2.88;;
31966;SDS011;18496;52.042;6.812;2023-06-26T09:47:21;6.72;;;3.20;;
31966;SDS011;18496;52.042;6.812;2023-06-26T09:49:25;6.07;;;2.88;;
31966;SDS011;18496;52.042;6.812;2023-06-26T09:51:29;6.05;;;3.05;;
31966;SDS011;18496;52.042;6.812;2023-06-26T09:53:37;7.43;;;2.70;;
31966;SDS011;18496;52.042;6.812;2023-06-26T09:55:41;13.40;;;3.67;;
31966;SDS011;18496;52.042;6.812;2023-06-26T09:57:47;9.23;;;3.28;;
31966;SDS011;18496;52.042;6.812;2023-06-26T09:59:52;5.88;;;3.20;;
31966;SDS011;18496;52.042;6.812;2023-06-26T10:01:58;5.93;;;3.35;;
31966;SDS011;18496;52.042;6.812;2023-06-26T10:04:03;15.90;;;3.30;;
31966;SDS011;18496;52.042;6.812;2023-06-26T10:06:07;5.30;;;2.63;;
31966;SDS011;18496;52.042;6.812;2023-06-26T10:08:13;5.25;;;2.90;;
31966;SDS011;18496;52.042;6.812;2023-06-26T10:10:18;4.22;;;2.67;;
31966;SDS011;18496;52.042;6.812;2023-06-26T10:12:26;7.05;;;3.35;;
31966;SDS011;18496;52.042;6.812;2023-06-26T10:14:35;8.27;;;3.42;;
31966;SDS011;18496;52.042;6.812;2023-06-26T10:16:41;5.25;;;2.95;;
31966;SDS011;18496;52.042;6.812;2023-06-26T10:18:47;8.85;;;3.40;;
31966;SDS011;18496;52.042;6.812;2023-06-26T10:20:54;8.52;;;2.78;;
31966;SDS011;18496;52.042;6.812;2023-06-26T10:23:00;8.48;;;3.00;;
31966;SDS011;18496;52.042;6.812;2023-06-26T10:25:08;8.15;;;2.65;;
31966;SDS011;18496;52.042;6.812;2023-06-26T10:27:17;7.63;;;2.85;;
31966;SDS011;18496;52.042;6.812;2023-06-26T10:29:23;4.65;;;2.70;;
31966;SDS011;18496;52.042;6.812;2023-06-26T10:31:28;7.47;;;2.90;;
31966;SDS011;18496;52.042;6.812;2023-06-26T10:33:32;6.95;;;3.35;;
31966;SDS011;18496;52.042;6.812;2023-06-26T10:35:43;17.15;;;3.40;;
31966;SDS011;18496;52.042;6.812;2023-06-26T10:37:48;6.72;;;3.30;;
31966;SDS011;18496;52.042;6.812;2023-06-26T10:39:52;7.90;;;2.80;;
31966;SDS011;18496;52.042;6.812;2023-06-26T10:42:07;8.45;;;3.45;;
31966;SDS011;18496;52.042;6.812;2023-06-26T10:44:16;3.15;;;2.25;;
31966;SDS011;18496;52.042;6.812;2023-06-26T10:46:20;5.03;;;2.38;;
31966;SDS011;18496;52.042;6.812;2023-06-26T10:48:25;5.13;;;2.40;;
31966;SDS011;18496;52.042;6.812;2023-06-26T10:50:32;10.75;;;3.20;;
31966;SDS011;18496;52.042;6.812;2023-06-26T10:52:40;4.65;;;2.13;;
31966;SDS011;18496;52.042;6.812;2023-06-26T10:54:44;5.40;;;2.50;;
31966;SDS011;18496;52.042;6.812;2023-06-26T10:56:54;3.80;;;2.13;;
31966;SDS011;18496;52.042;6.812;2023-06-26T10:59:11;4.32;;;2.10;;
31966;SDS011;18496;52.042;6.812;2023-06-26T11:01:20;5.88;;;2.20;;
31966;SDS011;18496;52.042;6.812;2023-06-26T11:03:26;3.97;;;2.28;;
31966;SDS011;18496;52.042;6.812;2023-06-26T11:05:34;3.53;;;1.77;;
31966;SDS011;18496;52.042;6.812;2023-06-26T11:07:37;4.45;;;2.17;;
31966;SDS011;18496;52.042;6.812;2023-06-26T11:10:08;3.10;;;1.95;;
31966;SDS011;18496;52.042;6.812;2023-06-26T11:12:12;4.30;;;1.50;;
31966;SDS011;18496;52.042;6.812;2023-06-26T11:14:17;3.45;;;1.70;;
31966;SDS011;18496;52.042;6.812;2023-06-26T11:16:22;12.02;;;1.88;;
31966;SDS011;18496;52.042;6.812;2023-06-26T11:18:29;3.28;;;1.42;;
31966;SDS011;18496;52.042;6.812;2023-06-26T11:20:33;7.05;;;1.90;;
31966;SDS011;18496;52.042;6.812;2023-06-26T11:22:38;7.68;;;1.63;;
31966;SDS011;18496;52.042;6.812;2023-06-26T11:24:42;4.25;;;1.40;;
31966;SDS011;18496;52.042;6.812;2023-06-26T11:26:47;5.97;;;1.55;;
31966;SDS011;18496;52.042;6.812;2023-06-26T11:28:52;3.00;;;1.40;;
31966;SDS011;18496;52.042;6.812;2023-06-26T11:30:59;8.50;;;1.88;;
31966;SDS011;18496;52.042;6.812;2023-06-26T11:33:04;9.80;;;1.55;;
31966;SDS011;18496;52.042;6.812;2023-06-26T11:35:09;5.88;;;1.48;;
31966;SDS011;18496;52.042;6.812;2023-06-26T11:37:16;3.25;;;1.60;;
31966;SDS011;18496;52.042;6.812;2023-06-26T11:39:20;5.88;;;1.15;;
31966;SDS011;18496;52.042;6.812;2023-06-26T11:41:25;5.07;;;1.63;;
31966;SDS011;18496;52.042;6.812;2023-06-26T11:43:33;5.55;;;1.17;;
31966;SDS011;18496;52.042;6.812;2023-06-26T11:45:37;7.13;;;1.60;;
31966;SDS011;18496;52.042;6.812;2023-06-26T11:47:43;6.15;;;1.70;;
31966;SDS011;18496;52.042;6.812;2023-06-26T11:49:47;4.30;;;1.65;;
31966;SDS011;18496;52.042;6.812;2023-06-26T11:51:52;3.17;;;1.17;;
31966;SDS011;18496;52.042;6.812;2023-06-26T11:54:00;7.20;;;1.70;;
31966;SDS011;18496;52.042;6.812;2023-06-26T11:56:09;2.78;;;1.40;;
31966;SDS011;18496;52.042;6.812;2023-06-26T11:58:13;7.07;;;1.45;;
31966;SDS011;18496;52.042;6.812;2023-06-26T12:00:17;4.43;;;1.13;;
31966;SDS011;18496;52.042;6.812;2023-06-26T12:02:21;4.82;;;1.35;;
31966;SDS011;18496;52.042;6.812;2023-06-26T12:04:25;4.03;;;1.40;;
31966;SDS011;18496;52.042;6.812;2023-06-26T12:06:29;4.70;;;1.45;;
31966;SDS011;18496;52.042;6.812;2023-06-26T12:08:35;4.13;;;1.40;;
31966;SDS011;18496;52.042;6.812;2023-06-26T12:10:38;2.85;;;1.25;;
31966;SDS011;18496;52.042;6.812;2023-06-26T12:12:42;6.63;;;1.50;;
31966;SDS011;18496;52.042;6.812;2023-06-26T12:14:46;4.50;;;1.10;;
31966;SDS011;18496;52.042;6.812;2023-06-26T12:16:50;3.17;;;1.27;;
31966;SDS011;18496;52.042;6.812;2023-06-26T12:18:59;3.83;;;1.50;;
31966;SDS011;18496;52.042;6.812;2023-06-26T12:21:03;6.00;;;1.17;;
31966;SDS011;18496;52.042;6.812;2023-06-26T12:23:13;3.05;;;1.20;;
31966;SDS011;18496;52.042;6.812;2023-06-26T12:25:23;2.83;;;1.25;;
31966;SDS011;18496;52.042;6.812;2023-06-26T12:27:27;1.40;;;1.17;;
31966;SDS011;18496;52.042;6.812;2023-06-26T12:29:32;2.20;;;1.40;;
31966;SDS011;18496;52.042;6.812;2023-06-26T12:31:39;2.85;;;1.10;;
31966;SDS011;18496;52.042;6.812;2023-06-26T12:33:47;6.57;;;1.33;;
31966;SDS011;18496;52.042;6.812;2023-06-26T12:35:51;3.28;;;1.40;;
31966;SDS011;18496;52.042;6.812;2023-06-26T12:37:54;5.05;;;1.48;;
31966;SDS011;18496;52.042;6.812;2023-06-26T12:39:58;3.10;;;1.20;;
31966;SDS011;18496;52.042;6.812;2023-06-26T12:42:02;2.85;;;1.30;;
31966;SDS011;18496;52.042;6.812;2023-06-26T12:44:06;2.17;;;1.52;;
31966;SDS011;18496;52.042;6.812;2023-06-26T12:46:20;3.63;;;1.10;;
31966;SDS011;18496;52.042;6.812;2023-06-26T12:48:39;2.58;;;1.40;;
31966;SDS011;18496;52.042;6.812;2023-06-26T12:50:46;9.27;;;1.88;;
31966;SDS011;18496;52.042;6.812;2023-06-26T12:52:51;2.70;;;1.27;;